Terminal Aerodrome Forecast
Issued by NWS

Home | Current Version | Previous Version | Text Only | Print | Product List | Glossary On
Versions: 1 2 3 4 5 6 7 8 9 10 11 12 13 14 15 16
891
FTUS46 KSEW 281728
TAFOLM
TAF
KOLM 281728Z 2818/2918 18004KT P6SM FEW060
     FM282000 24005KT P6SM SCT045 BKN120
     FM282300 28005KT P6SM SCT045 BKN120
     FM290700 00000KT P6SM SCT035 SCT200
     FM291200 00000KT P6SM OVC060=

USA.gov is the U.S. government's official web portal to all federal, state and local government web resources and services.